createdAt,value
2022-09-17T00:01:17.183Z,15.19
2022-09-17T00:03:45.675Z,15.19
2022-09-17T00:06:13.016Z,15.19
2022-09-17T00:08:42.116Z,15.21
2022-09-17T00:11:21.517Z,15.18
2022-09-17T00:13:50.368Z,15.16
2022-09-17T00:16:46.155Z,15.21
2022-09-17T00:19:23.177Z,15.22
2022-09-17T00:21:50.820Z,15.19
2022-09-17T00:24:18.957Z,15.21
2022-09-17T00:26:46.016Z,15.23
2022-09-17T00:29:13.435Z,15.22
2022-09-17T00:31:45.746Z,15.21
2022-09-17T00:34:13.036Z,15.23
2022-09-17T00:36:40.135Z,15.21
2022-09-17T00:39:09.556Z,15.23
2022-09-17T00:41:38.017Z,15.18
2022-09-17T00:44:42.157Z,15.13
2022-09-17T00:47:22.486Z,15.09
2022-09-17T00:49:52.955Z,15.01
2022-09-17T00:52:26.316Z,14.97
2022-09-17T00:55:00.118Z,14.99
2022-09-17T00:57:27.403Z,14.92
2022-09-17T00:59:54.796Z,14.89
2022-09-17T01:02:21.977Z,14.84
2022-09-17T01:04:49.138Z,14.83
2022-09-17T01:07:53.416Z,14.77
2022-09-17T01:10:34.503Z,14.75
2022-09-17T01:13:28.056Z,14.73
2022-09-17T01:16:17.440Z,14.70
2022-09-17T01:19:00.935Z,14.64
2022-09-17T01:21:39.558Z,14.63
2022-09-17T01:24:26.495Z,14.49
2022-09-17T01:27:25.695Z,14.50
2022-09-17T01:30:16.855Z,14.48
2022-09-17T01:33:07.184Z,14.48
2022-09-17T01:35:48.815Z,14.47
2022-09-17T01:38:34.820Z,14.48
2022-09-17T01:41:37.163Z,14.49
2022-09-17T01:44:39.476Z,14.35
2022-09-17T01:47:20.760Z,14.33
2022-09-17T01:49:52.918Z,14.30
2022-09-17T01:52:21.056Z,14.32
2022-09-17T01:54:53.258Z,14.34
2022-09-17T01:57:26.215Z,14.31
2022-09-17T02:00:02.195Z,14.33
2022-09-17T02:02:56.237Z,14.28
2022-09-17T02:05:43.404Z,14.25
2022-09-17T02:08:22.498Z,14.25
2022-09-17T02:11:02.798Z,14.21
2022-09-17T02:13:52.376Z,14.17
2022-09-17T02:16:29.270Z,14.15
2022-09-17T02:19:16.597Z,14.18
2022-09-17T02:22:06.998Z,14.19
2022-09-17T02:25:01.565Z,14.16
2022-09-17T02:27:49.795Z,14.17
2022-09-17T02:30:17.691Z,14.16
2022-09-17T02:32:44.915Z,14.11
2022-09-17T02:35:14.163Z,14.11
2022-09-17T02:37:43.034Z,14.15
2022-09-17T02:40:13.992Z,14.13
2022-09-17T02:43:36.114Z,14.15
2022-09-17T02:46:36.832Z,14.15
2022-09-17T02:49:15.895Z,14.12
2022-09-17T02:52:01.634Z,14.07
2022-09-17T02:54:46.683Z,14.02
2022-09-17T02:57:13.665Z,13.99
2022-09-17T02:59:52.883Z,13.99
2022-09-17T03:02:26.812Z,13.98
2022-09-17T03:04:56.595Z,13.99
2022-09-17T03:07:24.242Z,13.99
2022-09-17T03:09:51.335Z,13.98
2022-09-17T03:12:18.603Z,13.96
2022-09-17T03:14:45.698Z,13.96
2022-09-17T03:17:13.175Z,13.91
2022-09-17T03:19:40.234Z,13.92
2022-09-17T03:22:07.215Z,13.88
2022-09-17T03:24:34.222Z,13.85
2022-09-17T03:27:01.255Z,13.81
2022-09-17T03:29:28.295Z,13.81
2022-09-17T03:31:55.318Z,13.73
2022-09-17T03:34:22.484Z,13.73
2022-09-17T03:36:49.718Z,13.72
2022-09-17T03:39:16.735Z,13.63
2022-09-17T03:41:43.858Z,13.70
2022-09-17T03:44:10.842Z,13.77
2022-09-17T03:46:38.354Z,13.81
2022-09-17T03:49:05.563Z,13.80
2022-09-17T03:51:32.934Z,13.83
2022-09-17T03:53:59.961Z,13.88
2022-09-17T03:56:27.324Z,13.90
2022-09-17T03:59:01.105Z,13.92
2022-09-17T04:01:29.320Z,13.95
2022-09-17T04:03:56.345Z,13.97
2022-09-17T04:06:23.275Z,13.96
2022-09-17T04:08:50.434Z,13.96
2022-09-17T04:11:17.617Z,13.95
2022-09-17T04:13:44.615Z,13.97
2022-09-17T04:16:12.630Z,13.94
2022-09-17T04:18:39.735Z,13.93
2022-09-17T04:21:07.466Z,13.95
2022-09-17T04:23:34.657Z,13.93
2022-09-17T04:26:01.978Z,13.93
2022-09-17T04:28:29.097Z,13.94
2022-09-17T04:30:56.379Z,13.92
2022-09-17T04:33:23.816Z,13.91
2022-09-17T04:35:50.944Z,13.89
2022-09-17T04:38:21.065Z,13.88
2022-09-17T04:40:48.239Z,13.87
2022-09-17T04:43:15.240Z,13.86
2022-09-17T04:45:42.209Z,13.86
2022-09-17T04:48:09.180Z,13.84
2022-09-17T04:50:36.281Z,13.80
2022-09-17T04:53:03.580Z,13.81
2022-09-17T04:55:31.507Z,13.80
2022-09-17T04:57:58.721Z,13.81
2022-09-17T05:00:26.019Z,13.84
2022-09-17T05:02:55.070Z,13.80
2022-09-17T05:05:23.100Z,13.77
2022-09-17T05:07:50.160Z,13.80
2022-09-17T05:10:19.741Z,13.79
2022-09-17T05:12:54.453Z,13.80
2022-09-17T05:15:23.559Z,13.84
2022-09-17T05:17:50.681Z,13.87
2022-09-17T05:20:18.044Z,13.92
2022-09-17T05:22:52.649Z,13.95
2022-09-17T05:25:24.734Z,13.89
2022-09-17T05:27:53.665Z,13.90
2022-09-17T05:30:21.282Z,13.90
2022-09-17T05:32:48.675Z,13.88
2022-09-17T05:35:15.719Z,13.85
2022-09-17T05:37:42.660Z,13.86
2022-09-17T05:40:10.452Z,13.86
2022-09-17T05:42:37.540Z,13.87
2022-09-17T05:45:05.842Z,13.89
2022-09-17T05:47:32.700Z,13.89
2022-09-17T05:50:00.000Z,13.82
2022-09-17T05:52:29.200Z,13.85
2022-09-17T05:54:56.950Z,13.87
2022-09-17T05:57:24.180Z,13.86
2022-09-17T05:59:51.174Z,13.87
2022-09-17T06:02:18.341Z,13.90
2022-09-17T06:04:46.212Z,13.90
2022-09-17T06:07:13.139Z,13.89
2022-09-17T06:09:41.218Z,13.82
2022-09-17T06:12:08.663Z,13.83
2022-09-17T06:14:35.637Z,13.83
2022-09-17T06:17:02.540Z,13.84
2022-09-17T06:19:29.540Z,13.83
2022-09-17T06:21:56.601Z,13.86
2022-09-17T06:24:23.589Z,13.86
2022-09-17T06:26:52.189Z,13.88
2022-09-17T06:29:19.341Z,13.85
2022-09-17T06:31:48.730Z,13.83
2022-09-17T06:34:16.090Z,13.82
2022-09-17T06:36:43.040Z,13.85
2022-09-17T06:39:11.908Z,13.86
2022-09-17T06:41:39.264Z,13.89
2022-09-17T06:44:06.378Z,13.92
2022-09-17T06:46:33.387Z,13.93
2022-09-17T06:49:00.781Z,13.95
2022-09-17T06:51:27.980Z,13.88
2022-09-17T06:53:54.911Z,13.91
2022-09-17T06:56:21.890Z,13.95
2022-09-17T06:58:49.022Z,13.95
2022-09-17T07:01:16.001Z,13.97
2022-09-17T07:03:43.782Z,13.99
2022-09-17T07:06:11.336Z,14.00
2022-09-17T07:08:39.697Z,14.02
2022-09-17T07:11:07.030Z,13.99
2022-09-17T07:13:34.161Z,14.01
2022-09-17T07:16:02.919Z,14.04
2022-09-17T07:18:30.282Z,14.04
2022-09-17T07:21:02.211Z,14.09
2022-09-17T07:23:32.188Z,14.09
2022-09-17T07:26:01.788Z,14.10
2022-09-17T07:28:29.588Z,14.13
2022-09-17T07:30:57.405Z,14.16
2022-09-17T07:33:27.110Z,14.20
2022-09-17T07:35:54.941Z,14.24
2022-09-17T07:38:23.016Z,14.22
2022-09-17T07:40:58.207Z,14.28
2022-09-17T07:43:30.682Z,14.33
2022-09-17T07:45:59.400Z,14.34
2022-09-17T07:48:28.402Z,14.38
2022-09-17T07:50:55.540Z,14.38
2022-09-17T07:53:22.972Z,14.42
2022-09-17T07:56:00.362Z,14.45
2022-09-17T07:58:34.515Z,14.44
2022-09-17T08:01:09.431Z,14.44
2022-09-17T08:03:37.983Z,14.44
2022-09-17T08:06:05.599Z,14.46
2022-09-17T08:08:37.540Z,14.47
2022-09-17T08:11:07.920Z,14.48
2022-09-17T08:13:36.463Z,14.48
2022-09-17T08:16:06.390Z,14.51
2022-09-17T08:18:33.800Z,14.51
2022-09-17T08:21:05.159Z,14.52
2022-09-17T08:23:35.320Z,14.50
2022-09-17T08:26:02.968Z,14.56
2022-09-17T08:28:31.470Z,14.57
2022-09-17T08:31:08.522Z,14.56
2022-09-17T08:33:38.940Z,14.60
2022-09-17T08:36:07.960Z,14.67
2022-09-17T08:38:39.361Z,14.67
2022-09-17T08:41:40.304Z,14.67
2022-09-17T08:44:16.060Z,14.68
2022-09-17T08:47:00.652Z,14.66
2022-09-17T08:49:56.260Z,14.72
2022-09-17T08:52:42.009Z,14.71
2022-09-17T08:55:29.379Z,14.73
2022-09-17T08:58:18.078Z,14.70
2022-09-17T09:01:06.270Z,14.67
2022-09-17T09:03:52.012Z,14.73
2022-09-17T09:06:25.620Z,14.77
2022-09-17T09:09:01.708Z,14.75
2022-09-17T09:11:31.561Z,14.76
2022-09-17T09:14:13.300Z,14.75
2022-09-17T09:16:45.521Z,14.74
2022-09-17T09:19:27.100Z,14.76
2022-09-17T09:22:12.398Z,14.80
2022-09-17T09:24:52.890Z,14.84
2022-09-17T09:27:28.778Z,14.88
2022-09-17T09:30:05.741Z,14.91
2022-09-17T09:32:40.460Z,14.91
2022-09-17T09:35:20.660Z,14.98
2022-09-17T09:38:12.876Z,15.08
2022-09-17T09:41:04.368Z,15.09
2022-09-17T09:44:04.010Z,15.09
2022-09-17T09:46:41.989Z,15.07
2022-09-17T09:49:24.310Z,15.10
2022-09-17T09:52:19.940Z,15.11
2022-09-17T09:55:24.576Z,15.22
2022-09-17T09:58:04.260Z,15.27
2022-09-17T10:00:37.411Z,15.30
2022-09-17T10:03:27.570Z,15.36
2022-09-17T10:05:59.131Z,15.55
2022-09-17T10:08:27.560Z,15.63
2022-09-17T10:10:56.160Z,15.69
2022-09-17T10:13:23.929Z,15.71
2022-09-17T10:15:51.081Z,15.77
2022-09-17T10:18:20.610Z,15.79
2022-09-17T10:20:56.270Z,15.75
2022-09-17T10:23:26.099Z,15.74
2022-09-17T10:25:56.280Z,15.76
2022-09-17T10:28:48.122Z,15.77
2022-09-17T10:31:15.404Z,15.78
2022-09-17T10:34:04.841Z,15.79
2022-09-17T10:36:52.470Z,15.88
2022-09-17T10:39:25.673Z,15.98
2022-09-17T10:41:59.799Z,16.01
2022-09-17T10:44:32.249Z,16.07
2022-09-17T10:47:26.262Z,16.15
2022-09-17T10:50:08.370Z,16.00
2022-09-17T10:52:39.578Z,15.90
2022-09-17T10:55:50.521Z,15.82
2022-09-17T10:58:23.381Z,16.04
2022-09-17T11:13:35.368Z,15.69
2022-09-17T11:16:05.068Z,15.63
2022-09-17T11:18:45.648Z,15.67
2022-09-17T11:21:47.280Z,15.75
2022-09-17T11:24:35.622Z,15.87
2022-09-17T11:27:16.862Z,15.93
2022-09-17T11:30:02.080Z,16.09
2022-09-17T11:32:49.714Z,16.20
2022-09-17T11:35:18.660Z,16.22
2022-09-17T11:38:14.770Z,16.33
2022-09-17T11:40:50.790Z,16.36
2022-09-17T11:43:26.791Z,16.48
2022-09-17T11:46:05.797Z,16.50
2022-09-17T11:48:40.574Z,16.64
2022-09-17T11:51:20.630Z,16.70
2022-09-17T11:53:59.056Z,16.69
2022-09-17T11:56:35.941Z,16.75
2022-09-17T11:59:14.958Z,16.71
2022-09-17T12:01:58.247Z,16.74
2022-09-17T12:04:52.673Z,16.85
2022-09-17T12:07:46.010Z,16.76
2022-09-17T12:10:25.705Z,16.82
2022-09-17T12:12:58.930Z,16.59
2022-09-17T12:15:30.032Z,16.78
2022-09-17T12:18:33.974Z,16.85
2022-09-17T12:21:05.251Z,16.83
2022-09-17T12:23:35.591Z,16.74
2022-09-17T12:26:45.360Z,16.72
2022-09-17T12:29:24.600Z,16.82
2022-09-17T12:32:48.921Z,16.71
2022-09-17T12:39:02.687Z,16.78
2022-09-17T12:41:49.351Z,16.69
2022-09-17T12:44:24.180Z,16.65
2022-09-17T12:47:42.529Z,16.58
2022-09-17T12:50:18.312Z,16.55
2022-09-17T12:53:13.391Z,16.49
2022-09-17T12:56:05.920Z,16.50
2022-09-17T12:58:43.121Z,16.52
2022-09-17T13:01:22.015Z,16.50
2022-09-17T13:03:56.040Z,16.49
2022-09-17T13:07:07.979Z,16.48
2022-09-17T13:09:53.671Z,16.50
2022-09-17T13:12:20.600Z,16.42
2022-09-17T13:15:06.880Z,16.39
2022-09-17T13:18:13.250Z,16.34
2022-09-17T13:21:02.168Z,16.34
2022-09-17T13:23:40.779Z,16.32
2022-09-17T13:26:09.819Z,16.33
2022-09-17T13:28:48.200Z,16.24
2022-09-17T13:31:44.775Z,16.31
2022-09-17T13:34:17.926Z,16.22
2022-09-17T13:36:52.509Z,16.24
2022-09-17T13:39:40.964Z,16.26
2022-09-17T13:42:19.659Z,16.06
2022-09-17T13:44:52.227Z,15.97
2022-09-17T13:47:22.150Z,15.87
2022-09-17T13:49:54.470Z,15.90
2022-09-17T13:52:48.801Z,15.93
2022-09-17T13:55:52.534Z,15.85
2022-09-17T13:58:19.420Z,15.82
2022-09-17T14:01:13.287Z,15.76
2022-09-17T14:03:46.818Z,15.82
2022-09-17T14:06:15.089Z,15.77
2022-09-17T14:08:41.802Z,15.80
2022-09-17T14:11:29.590Z,15.79
2022-09-17T14:14:05.590Z,15.76
2022-09-17T14:16:37.540Z,15.75
2022-09-17T14:19:16.763Z,15.74
2022-09-17T14:22:25.161Z,15.76
2022-09-17T14:24:54.479Z,15.70
2022-09-17T14:27:40.099Z,15.72
2022-09-17T14:30:13.658Z,15.71
2022-09-17T14:33:01.844Z,15.71
2022-09-17T14:35:43.040Z,15.69
2022-09-17T14:38:14.580Z,15.70
2022-09-17T14:41:02.086Z,15.62
2022-09-17T14:44:03.951Z,15.62
2022-09-17T14:46:35.109Z,15.63
2022-09-17T14:49:23.181Z,15.62
2022-09-17T14:51:50.640Z,15.59
2022-09-17T14:54:25.192Z,15.61
2022-09-17T14:57:03.580Z,15.57
2022-09-17T14:59:52.471Z,15.57
2022-09-17T15:02:43.545Z,15.55
2022-09-17T15:05:18.420Z,15.56
2022-09-17T15:07:46.485Z,15.56
2022-09-17T15:10:22.578Z,15.54
2022-09-17T15:12:51.016Z,15.51
2022-09-17T15:15:26.580Z,15.51
2022-09-17T15:17:54.623Z,15.48
2022-09-17T15:20:31.494Z,15.49
2022-09-17T15:23:20.479Z,15.39
2022-09-17T15:25:49.930Z,15.38
2022-09-17T15:28:30.901Z,15.38
2022-09-17T15:30:58.045Z,15.35
2022-09-17T15:33:25.170Z,15.34
2022-09-17T15:36:00.523Z,15.33
2022-09-17T15:38:29.741Z,15.31
2022-09-17T15:41:24.080Z,15.28
2022-09-17T15:43:51.582Z,15.28
2022-09-17T15:46:30.328Z,15.29
2022-09-17T15:49:02.238Z,15.26
2022-09-17T15:51:35.729Z,15.22
2022-09-17T15:54:05.314Z,15.19
2022-09-17T15:56:38.339Z,15.18
2022-09-17T15:59:44.192Z,15.15
2022-09-17T16:02:27.266Z,15.17
2022-09-17T16:05:18.931Z,15.14
2022-09-17T16:07:46.281Z,15.10
2022-09-17T16:10:15.480Z,15.06
2022-09-17T16:12:43.068Z,15.00
2022-09-17T16:15:10.289Z,14.99
2022-09-17T16:17:37.158Z,14.97
2022-09-17T16:20:24.863Z,14.95
2022-09-17T16:22:53.100Z,14.91
2022-09-17T16:25:23.200Z,14.90
2022-09-17T16:28:22.500Z,14.85
2022-09-17T16:30:49.851Z,14.78
2022-09-17T16:33:18.731Z,14.71
2022-09-17T16:35:45.761Z,14.67
2022-09-17T16:38:13.172Z,14.63
2022-09-17T16:40:42.165Z,14.61
2022-09-17T16:43:10.060Z,14.52
2022-09-17T16:45:37.421Z,14.54
2022-09-17T16:48:05.878Z,14.40
2022-09-17T16:50:33.780Z,14.31
2022-09-17T16:53:04.874Z,14.30
2022-09-17T16:55:32.721Z,14.28
2022-09-17T16:57:59.839Z,14.28
2022-09-17T17:00:27.431Z,14.28
2022-09-17T17:02:57.126Z,14.28
2022-09-17T17:05:26.061Z,14.27
2022-09-17T17:07:55.438Z,14.23
2022-09-17T17:10:28.481Z,14.16
2022-09-17T17:12:56.512Z,14.13
2022-09-17T17:15:23.908Z,14.06
2022-09-17T17:17:51.660Z,13.92
2022-09-17T17:20:19.320Z,13.79
2022-09-17T17:22:46.381Z,13.71
2022-09-17T17:25:15.470Z,13.65
2022-09-17T17:27:44.630Z,13.66
2022-09-17T17:30:17.797Z,13.62
2022-09-17T17:32:49.320Z,13.61
2022-09-17T17:35:16.380Z,13.66
2022-09-17T17:37:43.940Z,13.63
2022-09-17T17:40:11.023Z,13.68
2022-09-17T17:42:39.680Z,13.63
2022-09-17T17:45:07.987Z,13.62
2022-09-17T17:47:35.121Z,13.66
2022-09-17T17:50:02.582Z,13.66
2022-09-17T17:52:29.810Z,13.62
2022-09-17T17:54:56.801Z,13.60
2022-09-17T17:57:23.741Z,13.55
2022-09-17T17:59:50.731Z,13.56
2022-09-17T18:02:17.784Z,13.51
2022-09-17T18:04:44.890Z,13.49
2022-09-17T18:07:11.875Z,13.45
2022-09-17T18:09:38.864Z,13.40
2022-09-17T18:12:06.262Z,13.32
2022-09-17T18:14:33.323Z,13.26
2022-09-17T18:17:00.271Z,13.26
2022-09-17T18:19:27.200Z,13.27
2022-09-17T18:21:54.783Z,13.29
2022-09-17T18:24:21.823Z,13.28
2022-09-17T18:26:48.881Z,13.27
2022-09-17T18:29:15.872Z,13.25
2022-09-17T18:31:44.769Z,13.22
2022-09-17T18:34:14.149Z,13.13
2022-09-17T18:36:43.460Z,13.04
2022-09-17T18:42:02.182Z,13.01
2022-09-17T18:44:29.220Z,12.77
2022-09-17T18:46:56.332Z,12.87
2022-09-17T18:49:23.440Z,12.89
2022-09-17T18:51:50.341Z,12.90
2022-09-17T18:54:17.255Z,12.89
2022-09-17T18:56:44.280Z,12.85
2022-09-17T18:59:11.583Z,12.86
2022-09-17T19:01:38.613Z,12.80
2022-09-17T19:04:07.935Z,12.81
2022-09-17T19:06:35.645Z,12.76
2022-09-17T19:09:04.486Z,12.75
2022-09-17T19:11:31.550Z,12.71
2022-09-17T19:13:58.862Z,12.71
2022-09-17T19:16:25.969Z,12.73
2022-09-17T19:18:53.161Z,12.70
2022-09-17T19:21:21.879Z,12.65
2022-09-17T19:23:52.980Z,12.63
2022-09-17T19:26:22.495Z,12.60
2022-09-17T19:28:52.921Z,12.58
2022-09-17T19:31:20.380Z,12.55
2022-09-17T19:33:48.181Z,12.49
2022-09-17T19:36:16.670Z,12.47
2022-09-17T19:38:43.961Z,12.48
2022-09-17T19:41:20.031Z,12.42
2022-09-17T19:43:47.420Z,12.38
2022-09-17T19:46:17.008Z,12.21
2022-09-17T19:48:53.280Z,12.26
2022-09-17T19:51:21.610Z,12.32
2022-09-17T19:53:48.469Z,12.33
2022-09-17T19:56:18.690Z,12.30
2022-09-17T19:58:45.797Z,12.29
2022-09-17T20:01:13.948Z,12.28
2022-09-17T20:03:42.901Z,12.21
2022-09-17T20:06:12.310Z,12.19
2022-09-17T20:08:50.481Z,12.22
2022-09-17T20:11:19.901Z,12.21
2022-09-17T20:13:47.203Z,12.22
2022-09-17T20:16:20.432Z,12.22
2022-09-17T20:18:49.210Z,12.19
2022-09-17T20:21:17.629Z,12.20
2022-09-17T20:23:45.669Z,12.21
2022-09-17T20:26:12.828Z,12.26
2022-09-17T20:28:40.280Z,12.25
2022-09-17T20:31:12.891Z,12.25
2022-09-17T20:33:40.430Z,12.26
2022-09-17T20:36:11.360Z,12.22
2022-09-17T20:41:25.960Z,12.16
2022-09-17T20:43:53.867Z,12.23
2022-09-17T20:46:27.582Z,12.28
2022-09-17T20:48:57.784Z,12.27
2022-09-17T20:51:28.120Z,12.24
2022-09-17T20:53:55.521Z,12.21
2022-09-17T20:56:24.621Z,12.11
2022-09-17T20:59:03.413Z,12.00
2022-09-17T21:01:36.107Z,12.04
2022-09-17T21:04:05.246Z,12.02
2022-09-17T21:06:35.303Z,12.05
2022-09-17T21:09:03.176Z,12.09
2022-09-17T21:11:31.560Z,12.07
2022-09-17T21:13:59.711Z,12.06
2022-09-17T21:16:27.343Z,12.07
2022-09-17T21:19:05.022Z,12.09
2022-09-17T21:21:34.652Z,12.12
2022-09-17T21:24:03.271Z,12.15
2022-09-17T21:26:30.555Z,12.16
2022-09-17T21:28:57.963Z,12.14
2022-09-17T21:31:32.117Z,12.15
2022-09-17T21:34:02.103Z,12.14
2022-09-17T21:36:32.290Z,12.17
2022-09-17T21:39:05.309Z,12.18
2022-09-17T21:41:32.501Z,12.19
2022-09-17T21:44:00.015Z,12.20
2022-09-17T21:46:29.391Z,12.18
2022-09-17T21:49:00.158Z,12.18
2022-09-17T21:51:30.808Z,12.19
2022-09-17T21:54:00.626Z,12.17
2022-09-17T21:56:29.261Z,12.12
2022-09-17T21:59:01.640Z,12.14
2022-09-17T22:01:31.920Z,12.17
2022-09-17T22:04:00.146Z,12.17
2022-09-17T22:06:29.400Z,12.14
2022-09-17T22:08:57.402Z,12.12
2022-09-17T22:11:32.889Z,12.08
2022-09-17T22:14:05.400Z,12.07
2022-09-17T22:16:36.108Z,12.01
2022-09-17T22:19:04.339Z,11.84
2022-09-17T22:21:33.209Z,11.88
2022-09-17T22:24:02.104Z,11.92
2022-09-17T22:26:32.085Z,11.87
2022-09-17T22:29:07.361Z,11.84
2022-09-17T22:31:34.559Z,11.82
2022-09-17T22:34:02.144Z,11.78
2022-09-17T22:36:29.980Z,11.78
2022-09-17T22:38:58.718Z,11.76
2022-09-17T22:41:28.086Z,11.74
2022-09-17T22:44:03.119Z,11.76
2022-09-17T22:46:32.757Z,11.75
2022-09-17T22:49:00.459Z,11.73
2022-09-17T22:51:29.395Z,11.75
2022-09-17T22:53:57.120Z,11.73
2022-09-17T22:56:24.821Z,11.75
2022-09-17T22:58:52.119Z,11.73
2022-09-17T23:01:22.290Z,11.70
2022-09-17T23:03:51.566Z,11.68
2022-09-17T23:06:22.780Z,11.74
2022-09-17T23:08:50.470Z,11.73
2022-09-17T23:11:30.823Z,11.71
2022-09-17T23:14:02.389Z,11.66
2022-09-17T23:16:40.521Z,11.66
2022-09-17T23:19:07.489Z,11.68
2022-09-17T23:21:34.599Z,11.62
2022-09-17T23:24:01.960Z,11.60
2022-09-17T23:26:29.260Z,11.54
2022-09-17T23:28:58.959Z,11.56
2022-09-17T23:31:29.479Z,11.50
2022-09-17T23:33:56.811Z,11.53
2022-09-17T23:36:29.539Z,11.48
2022-09-17T23:38:58.320Z,11.47
2022-09-17T23:41:31.863Z,11.43
2022-09-17T23:44:00.891Z,11.42
2022-09-17T23:46:35.063Z,11.39
2022-09-17T23:49:04.122Z,11.33
2022-09-17T23:51:33.802Z,11.34
2022-09-17T23:54:00.981Z,11.26
2022-09-17T23:56:28.969Z,11.26
2022-09-17T23:58:57.010Z,11.30
